sensor_id;sensor_type;location;lat;lon;timestamp;temperature;humidity
2767;DHT22;1391;46.742;11.636;2022-11-20T00:01:04;0.20;99.90
2767;DHT22;1391;46.742;11.636;2022-11-20T00:03:32;0.10;99.90
2767;DHT22;1391;46.742;11.636;2022-11-20T00:06:01;-0.20;99.90
2767;DHT22;1391;46.742;11.636;2022-11-20T00:08:29;0.10;99.90
2767;DHT22;1391;46.742;11.636;2022-11-20T00:10:56;-0.20;99.90
2767;DHT22;1391;46.742;11.636;2022-11-20T00:13:24;-0.10;99.90
2767;DHT22;1391;46.742;11.636;2022-11-20T00:15:57;-0.30;99.90
2767;DHT22;1391;46.742;11.636;2022-11-20T00:18:24;-0.30;99.90
2767;DHT22;1391;46.742;11.636;2022-11-20T00:20:51;-0.30;99.90
2767;DHT22;1391;46.742;11.636;2022-11-20T00:23:20;-0.30;99.90
2767;DHT22;1391;46.742;11.636;2022-11-20T00:25:47;-0.30;99.90
2767;DHT22;1391;46.742;11.636;2022-11-20T00:28:15;-0.20;99.90
2767;DHT22;1391;46.742;11.636;2022-11-20T00:30:42;-0.60;99.90
2767;DHT22;1391;46.742;11.636;2022-11-20T00:33:09;-0.30;99.90
2767;DHT22;1391;46.742;11.636;2022-11-20T00:35:37;-0.40;99.90
2767;DHT22;1391;46.742;11.636;2022-11-20T00:38:04;-0.70;99.90
2767;DHT22;1391;46.742;11.636;2022-11-20T00:40:33;-0.70;99.90
2767;DHT22;1391;46.742;11.636;2022-11-20T00:43:00;-0.30;99.90
2767;DHT22;1391;46.742;11.636;2022-11-20T00:45:27;-0.30;99.90
2767;DHT22;1391;46.742;11.636;2022-11-20T00:47:55;-0.30;99.90
2767;DHT22;1391;46.742;11.636;2022-11-20T00:50:22;-0.20;99.90
2767;DHT22;1391;46.742;11.636;2022-11-20T00:52:49;-0.70;99.90
2767;DHT22;1391;46.742;11.636;2022-11-20T00:55:17;-0.40;99.90
2767;DHT22;1391;46.742;11.636;2022-11-20T00:57:46;-0.70;99.90
2767;DHT22;1391;46.742;11.636;2022-11-20T01:00:14;-0.40;99.90
2767;DHT22;1391;46.742;11.636;2022-11-20T01:02:41;-0.70;99.90
2767;DHT22;1391;46.742;11.636;2022-11-20T01:05:09;-0.90;99.90
2767;DHT22;1391;46.742;11.636;2022-11-20T01:07:36;-1.00;99.90
2767;DHT22;1391;46.742;11.636;2022-11-20T01:10:04;-0.70;99.90
2767;DHT22;1391;46.742;11.636;2022-11-20T01:12:32;-0.90;99.90
2767;DHT22;1391;46.742;11.636;2022-11-20T01:15:01;-1.00;99.90
2767;DHT22;1391;46.742;11.636;2022-11-20T01:17:28;-0.90;99.90
2767;DHT22;1391;46.742;11.636;2022-11-20T01:19:55;-1.00;99.90
2767;DHT22;1391;46.742;11.636;2022-11-20T01:22:23;-0.90;99.90
2767;DHT22;1391;46.742;11.636;2022-11-20T01:24:50;-0.90;99.90
2767;DHT22;1391;46.742;11.636;2022-11-20T01:27:17;-0.90;99.90
2767;DHT22;1391;46.742;11.636;2022-11-20T01:29:45;-1.00;99.90
2767;DHT22;1391;46.742;11.636;2022-11-20T01:32:15;-0.90;99.90
2767;DHT22;1391;46.742;11.636;2022-11-20T01:34:42;-0.90;99.90
2767;DHT22;1391;46.742;11.636;2022-11-20T01:37:09;-1.20;99.90
2767;DHT22;1391;46.742;11.636;2022-11-20T01:39:37;-0.90;99.90
2767;DHT22;1391;46.742;11.636;2022-11-20T01:42:04;-1.00;99.90
2767;DHT22;1391;46.742;11.636;2022-11-20T01:44:56;-0.90;99.90
2767;DHT22;1391;46.742;11.636;2022-11-20T01:47:30;-0.90;99.90
2767;DHT22;1391;46.742;11.636;2022-11-20T01:50:04;-1.10;99.90
2767;DHT22;1391;46.742;11.636;2022-11-20T01:52:36;-1.20;99.90
2767;DHT22;1391;46.742;11.636;2022-11-20T01:55:07;-0.90;99.90
2767;DHT22;1391;46.742;11.636;2022-11-20T01:57:36;-1.00;99.90
2767;DHT22;1391;46.742;11.636;2022-11-20T02:00:08;-0.90;99.90
2767;DHT22;1391;46.742;11.636;2022-11-20T02:02:39;-1.00;99.90
2767;DHT22;1391;46.742;11.636;2022-11-20T02:05:16;-0.90;99.90
2767;DHT22;1391;46.742;11.636;2022-11-20T02:07:46;-0.90;99.90
2767;DHT22;1391;46.742;11.636;2022-11-20T02:10:15;-1.00;99.90
2767;DHT22;1391;46.742;11.636;2022-11-20T02:12:43;-0.70;99.90
2767;DHT22;1391;46.742;11.636;2022-11-20T02:15:27;-1.20;99.90
2767;DHT22;1391;46.742;11.636;2022-11-20T02:17:56;-1.00;99.90
2767;DHT22;1391;46.742;11.636;2022-11-20T02:20:24;-0.90;99.90
2767;DHT22;1391;46.742;11.636;2022-11-20T02:22:56;-0.90;99.90
2767;DHT22;1391;46.742;11.636;2022-11-20T02:25:28;-1.00;99.90
2767;DHT22;1391;46.742;11.636;2022-11-20T02:27:56;-1.10;99.90
2767;DHT22;1391;46.742;11.636;2022-11-20T02:30:24;-1.00;99.90
2767;DHT22;1391;46.742;11.636;2022-11-20T02:32:51;-1.10;99.90
2767;DHT22;1391;46.742;11.636;2022-11-20T02:35:43;-1.20;99.90
2767;DHT22;1391;46.742;11.636;2022-11-20T02:38:12;-1.10;99.90
2767;DHT22;1391;46.742;11.636;2022-11-20T02:40:42;-1.20;99.90
2767;DHT22;1391;46.742;11.636;2022-11-20T02:43:10;-1.10;99.90
2767;DHT22;1391;46.742;11.636;2022-11-20T02:45:37;-1.40;99.90
2767;DHT22;1391;46.742;11.636;2022-11-20T02:48:06;-1.10;99.90
2767;DHT22;1391;46.742;11.636;2022-11-20T02:50:37;-1.00;99.90
2767;DHT22;1391;46.742;11.636;2022-11-20T02:53:06;-1.10;99.90
2767;DHT22;1391;46.742;11.636;2022-11-20T02:55:33;-1.20;99.90
2767;DHT22;1391;46.742;11.636;2022-11-20T02:58:02;-1.10;99.90
2767;DHT22;1391;46.742;11.636;2022-11-20T03:00:30;-1.20;99.90
2767;DHT22;1391;46.742;11.636;2022-11-20T03:02:57;-1.20;99.90
2767;DHT22;1391;46.742;11.636;2022-11-20T03:05:24;-1.20;99.90
2767;DHT22;1391;46.742;11.636;2022-11-20T03:07:52;-1.10;99.90
2767;DHT22;1391;46.742;11.636;2022-11-20T03:10:20;-1.20;99.90
2767;DHT22;1391;46.742;11.636;2022-11-20T03:12:53;-1.20;99.90
2767;DHT22;1391;46.742;11.636;2022-11-20T03:15:22;-1.10;99.90
2767;DHT22;1391;46.742;11.636;2022-11-20T03:17:53;-1.40;99.90
2767;DHT22;1391;46.742;11.636;2022-11-20T03:20:21;-1.20;99.90
2767;DHT22;1391;46.742;11.636;2022-11-20T03:22:49;-1.20;99.90
2767;DHT22;1391;46.742;11.636;2022-11-20T03:25:17;-1.40;99.90
2767;DHT22;1391;46.742;11.636;2022-11-20T03:27:44;-1.40;99.90
2767;DHT22;1391;46.742;11.636;2022-11-20T03:32:42;-1.40;99.90
2767;DHT22;1391;46.742;11.636;2022-11-20T03:35:09;-1.30;99.90
2767;DHT22;1391;46.742;11.636;2022-11-20T03:37:37;-1.40;99.90
2767;DHT22;1391;46.742;11.636;2022-11-20T03:40:05;-1.90;99.90
2767;DHT22;1391;46.742;11.636;2022-11-20T03:42:33;-1.40;99.90
2767;DHT22;1391;46.742;11.636;2022-11-20T03:45:13;-1.40;99.90
2767;DHT22;1391;46.742;11.636;2022-11-20T03:47:43;-1.40;99.90
2767;DHT22;1391;46.742;11.636;2022-11-20T03:50:12;-1.40;99.90
2767;DHT22;1391;46.742;11.636;2022-11-20T03:52:40;-1.30;99.90
2767;DHT22;1391;46.742;11.636;2022-11-20T03:55:08;-1.60;99.90
2767;DHT22;1391;46.742;11.636;2022-11-20T03:57:35;-1.80;99.90
2767;DHT22;1391;46.742;11.636;2022-11-20T04:00:04;-1.90;99.90
2767;DHT22;1391;46.742;11.636;2022-11-20T04:02:32;-1.60;99.90
2767;DHT22;1391;46.742;11.636;2022-11-20T04:05:01;-1.60;99.90
2767;DHT22;1391;46.742;11.636;2022-11-20T04:07:28;-1.30;99.90
2767;DHT22;1391;46.742;11.636;2022-11-20T04:09:55;-1.40;99.90
2767;DHT22;1391;46.742;11.636;2022-11-20T04:12:23;-1.40;99.90
2767;DHT22;1391;46.742;11.636;2022-11-20T04:14:50;-1.90;99.90
2767;DHT22;1391;46.742;11.636;2022-11-20T04:17:18;-1.60;99.90
2767;DHT22;1391;46.742;11.636;2022-11-20T04:19:45;-1.60;99.90
2767;DHT22;1391;46.742;11.636;2022-11-20T04:22:14;-1.60;99.90
2767;DHT22;1391;46.742;11.636;2022-11-20T04:24:41;-1.80;99.90
2767;DHT22;1391;46.742;11.636;2022-11-20T04:27:09;-1.90;99.90
2767;DHT22;1391;46.742;11.636;2022-11-20T04:29:36;-1.60;99.90
2767;DHT22;1391;46.742;11.636;2022-11-20T04:32:03;-1.60;99.90
2767;DHT22;1391;46.742;11.636;2022-11-20T04:34:31;-1.30;99.90
2767;DHT22;1391;46.742;11.636;2022-11-20T04:36:58;-1.40;99.90
2767;DHT22;1391;46.742;11.636;2022-11-20T04:39:27;-1.90;99.90
2767;DHT22;1391;46.742;11.636;2022-11-20T04:41:54;-1.60;99.90
2767;DHT22;1391;46.742;11.636;2022-11-20T04:44:35;-1.80;99.90
2767;DHT22;1391;46.742;11.636;2022-11-20T04:47:03;-1.40;99.90
2767;DHT22;1391;46.742;11.636;2022-11-20T04:49:30;-1.40;99.90
2767;DHT22;1391;46.742;11.636;2022-11-20T04:51:58;-1.30;99.90
2767;DHT22;1391;46.742;11.636;2022-11-20T04:54:27;-1.70;99.90
2767;DHT22;1391;46.742;11.636;2022-11-20T04:56:54;-1.40;99.90
2767;DHT22;1391;46.742;11.636;2022-11-20T04:59:21;-1.90;99.90
2767;DHT22;1391;46.742;11.636;2022-11-20T05:01:49;-1.70;99.90
2767;DHT22;1391;46.742;11.636;2022-11-20T05:04:16;-1.50;99.90
2767;DHT22;1391;46.742;11.636;2022-11-20T05:06:44;-1.40;99.90
2767;DHT22;1391;46.742;11.636;2022-11-20T05:09:12;-1.30;99.90
2767;DHT22;1391;46.742;11.636;2022-11-20T05:11:40;-1.40;99.90
2767;DHT22;1391;46.742;11.636;2022-11-20T05:14:08;-1.40;99.90
2767;DHT22;1391;46.742;11.636;2022-11-20T05:16:35;-1.90;99.90
2767;DHT22;1391;46.742;11.636;2022-11-20T05:19:03;-1.40;99.90
2767;DHT22;1391;46.742;11.636;2022-11-20T05:21:31;-1.90;99.90
2767;DHT22;1391;46.742;11.636;2022-11-20T05:23:58;-1.40;99.90
2767;DHT22;1391;46.742;11.636;2022-11-20T05:26:26;-1.40;99.90
2767;DHT22;1391;46.742;11.636;2022-11-20T05:28:54;-1.40;99.90
2767;DHT22;1391;46.742;11.636;2022-11-20T05:31:24;-1.90;99.90
2767;DHT22;1391;46.742;11.636;2022-11-20T05:33:51;-1.40;99.90
2767;DHT22;1391;46.742;11.636;2022-11-20T05:36:20;-1.40;99.90
2767;DHT22;1391;46.742;11.636;2022-11-20T05:38:50;-1.90;99.90
2767;DHT22;1391;46.742;11.636;2022-11-20T05:41:19;-1.70;99.90
2767;DHT22;1391;46.742;11.636;2022-11-20T05:43:47;-1.60;99.90
2767;DHT22;1391;46.742;11.636;2022-11-20T05:46:18;-1.80;99.90
2767;DHT22;1391;46.742;11.636;2022-11-20T05:48:47;-2.00;99.90
2767;DHT22;1391;46.742;11.636;2022-11-20T05:51:18;-2.10;99.90
2767;DHT22;1391;46.742;11.636;2022-11-20T05:53:46;-1.40;99.90
2767;DHT22;1391;46.742;11.636;2022-11-20T05:56:15;-2.10;99.90
2767;DHT22;1391;46.742;11.636;2022-11-20T05:58:44;-1.70;99.90
2767;DHT22;1391;46.742;11.636;2022-11-20T06:01:16;-2.10;99.90
2767;DHT22;1391;46.742;11.636;2022-11-20T06:03:46;-1.70;99.90
2767;DHT22;1391;46.742;11.636;2022-11-20T06:06:17;-2.10;99.90
2767;DHT22;1391;46.742;11.636;2022-11-20T06:08:45;-1.70;99.90
2767;DHT22;1391;46.742;11.636;2022-11-20T06:11:14;-1.90;99.90
2767;DHT22;1391;46.742;11.636;2022-11-20T06:13:42;-1.60;99.90
2767;DHT22;1391;46.742;11.636;2022-11-20T06:16:10;-1.70;99.90
2767;DHT22;1391;46.742;11.636;2022-11-20T06:18:40;-1.40;99.90
2767;DHT22;1391;46.742;11.636;2022-11-20T06:21:10;-1.40;99.90
2767;DHT22;1391;46.742;11.636;2022-11-20T06:23:38;-1.70;99.90
2767;DHT22;1391;46.742;11.636;2022-11-20T06:26:08;-1.40;99.90
2767;DHT22;1391;46.742;11.636;2022-11-20T06:28:37;-1.90;99.90
2767;DHT22;1391;46.742;11.636;2022-11-20T06:31:06;-1.40;99.90
2767;DHT22;1391;46.742;11.636;2022-11-20T06:33:34;-1.40;99.90
2767;DHT22;1391;46.742;11.636;2022-11-20T06:36:04;-1.90;99.90
2767;DHT22;1391;46.742;11.636;2022-11-20T06:38:32;-1.60;99.90
2767;DHT22;1391;46.742;11.636;2022-11-20T06:41:00;-1.80;99.90
2767;DHT22;1391;46.742;11.636;2022-11-20T06:43:29;-1.90;99.90
2767;DHT22;1391;46.742;11.636;2022-11-20T06:45:58;-1.70;99.90
2767;DHT22;1391;46.742;11.636;2022-11-20T06:48:26;-1.90;99.90
2767;DHT22;1391;46.742;11.636;2022-11-20T06:50:54;-1.60;99.90
2767;DHT22;1391;46.742;11.636;2022-11-20T06:53:23;-1.80;99.90
2767;DHT22;1391;46.742;11.636;2022-11-20T06:55:52;-1.90;99.90
2767;DHT22;1391;46.742;11.636;2022-11-20T06:58:25;-1.60;99.90
2767;DHT22;1391;46.742;11.636;2022-11-20T07:00:57;-1.70;99.90
2767;DHT22;1391;46.742;11.636;2022-11-20T07:03:25;-1.60;99.90
2767;DHT22;1391;46.742;11.636;2022-11-20T07:05:54;-1.80;99.90
2767;DHT22;1391;46.742;11.636;2022-11-20T07:08:24;-2.00;99.90
2767;DHT22;1391;46.742;11.636;2022-11-20T07:10:52;-1.40;99.90
2767;DHT22;1391;46.742;11.636;2022-11-20T07:13:20;-1.90;99.90
2767;DHT22;1391;46.742;11.636;2022-11-20T07:15:47;-1.60;99.90
2767;DHT22;1391;46.742;11.636;2022-11-20T07:18:15;-1.80;99.90
2767;DHT22;1391;46.742;11.636;2022-11-20T07:20:43;-1.90;99.90
2767;DHT22;1391;46.742;11.636;2022-11-20T07:23:11;-1.90;99.90
2767;DHT22;1391;46.742;11.636;2022-11-20T07:25:40;-1.60;99.90
2767;DHT22;1391;46.742;11.636;2022-11-20T07:28:07;-1.80;99.90
2767;DHT22;1391;46.742;11.636;2022-11-20T07:30:36;-1.80;99.90
2767;DHT22;1391;46.742;11.636;2022-11-20T07:33:04;-1.90;99.90
2767;DHT22;1391;46.742;11.636;2022-11-20T07:35:34;-1.60;99.90
2767;DHT22;1391;46.742;11.636;2022-11-20T07:38:02;-1.80;99.90
2767;DHT22;1391;46.742;11.636;2022-11-20T07:40:30;-1.30;99.90
2767;DHT22;1391;46.742;11.636;2022-11-20T07:42:59;-1.20;99.90
2767;DHT22;1391;46.742;11.636;2022-11-20T07:45:27;-1.20;99.90
2767;DHT22;1391;46.742;11.636;2022-11-20T07:47:54;-1.30;99.90
2767;DHT22;1391;46.742;11.636;2022-11-20T07:50:22;-1.30;99.90
2767;DHT22;1391;46.742;11.636;2022-11-20T07:52:50;-0.80;99.90
2767;DHT22;1391;46.742;11.636;2022-11-20T07:55:18;-0.20;99.90
2767;DHT22;1391;46.742;11.636;2022-11-20T07:57:45;0.00;99.90
2767;DHT22;1391;46.742;11.636;2022-11-20T08:00:15;0.60;99.90
2767;DHT22;1391;46.742;11.636;2022-11-20T08:02:43;1.10;99.90
2767;DHT22;1391;46.742;11.636;2022-11-20T08:05:10;1.40;99.90
2767;DHT22;1391;46.742;11.636;2022-11-20T08:07:38;1.90;99.90
2767;DHT22;1391;46.742;11.636;2022-11-20T08:10:10;2.40;99.90
2767;DHT22;1391;46.742;11.636;2022-11-20T08:12:44;2.80;99.90
2767;DHT22;1391;46.742;11.636;2022-11-20T08:15:31;2.80;99.90
2767;DHT22;1391;46.742;11.636;2022-11-20T08:18:02;3.20;99.90
2767;DHT22;1391;46.742;11.636;2022-11-20T08:20:31;2.90;94.20
2767;DHT22;1391;46.742;11.636;2022-11-20T08:22:59;2.90;95.50
2767;DHT22;1391;46.742;11.636;2022-11-20T08:25:28;2.80;94.10
2767;DHT22;1391;46.742;11.636;2022-11-20T08:27:57;3.10;93.20
2767;DHT22;1391;46.742;11.636;2022-11-20T08:30:27;3.20;92.10
2767;DHT22;1391;46.742;11.636;2022-11-20T08:33:01;3.80;90.60
2767;DHT22;1391;46.742;11.636;2022-11-20T08:35:33;3.70;90.80
2767;DHT22;1391;46.742;11.636;2022-11-20T08:38:01;3.60;90.60
2767;DHT22;1391;46.742;11.636;2022-11-20T08:40:29;3.90;90.60
2767;DHT22;1391;46.742;11.636;2022-11-20T08:42:57;3.80;86.60
2767;DHT22;1391;46.742;11.636;2022-11-20T08:45:25;3.90;87.90
2767;DHT22;1391;46.742;11.636;2022-11-20T08:47:52;4.00;83.90
2767;DHT22;1391;46.742;11.636;2022-11-20T08:50:21;3.90;83.20
2767;DHT22;1391;46.742;11.636;2022-11-20T08:52:48;4.80;80.60
2767;DHT22;1391;46.742;11.636;2022-11-20T08:55:16;4.70;83.10
2767;DHT22;1391;46.742;11.636;2022-11-20T08:57:43;4.30;78.10
2767;DHT22;1391;46.742;11.636;2022-11-20T09:00:11;4.60;78.70
2767;DHT22;1391;46.742;11.636;2022-11-20T09:02:40;4.90;79.20
2767;DHT22;1391;46.742;11.636;2022-11-20T09:05:07;4.50;76.90
2767;DHT22;1391;46.742;11.636;2022-11-20T09:07:37;5.20;79.40
2767;DHT22;1391;46.742;11.636;2022-11-20T09:10:07;6.30;77.80
2767;DHT22;1391;46.742;11.636;2022-11-20T09:12:35;5.70;72.00
2767;DHT22;1391;46.742;11.636;2022-11-20T09:15:03;5.20;72.00
2767;DHT22;1391;46.742;11.636;2022-11-20T09:17:32;5.40;72.90
2767;DHT22;1391;46.742;11.636;2022-11-20T09:19:59;4.90;70.80
2767;DHT22;1391;46.742;11.636;2022-11-20T09:22:27;5.50;70.80
2767;DHT22;1391;46.742;11.636;2022-11-20T09:24:55;4.80;71.10
2767;DHT22;1391;46.742;11.636;2022-11-20T09:27:23;5.00;71.40
2767;DHT22;1391;46.742;11.636;2022-11-20T09:29:50;5.50;71.40
2767;DHT22;1391;46.742;11.636;2022-11-20T09:32:17;5.90;68.60
2767;DHT22;1391;46.742;11.636;2022-11-20T09:34:45;5.90;69.70
2767;DHT22;1391;46.742;11.636;2022-11-20T09:37:12;5.90;67.70
2767;DHT22;1391;46.742;11.636;2022-11-20T09:39:40;6.30;64.90
2767;DHT22;1391;46.742;11.636;2022-11-20T09:42:32;6.50;65.70
2767;DHT22;1391;46.742;11.636;2022-11-20T09:45:17;7.00;69.70
2767;DHT22;1391;46.742;11.636;2022-11-20T09:50:49;7.50;61.10
2767;DHT22;1391;46.742;11.636;2022-11-20T09:53:27;7.50;61.70
2767;DHT22;1391;46.742;11.636;2022-11-20T09:56:01;7.80;60.40
2767;DHT22;1391;46.742;11.636;2022-11-20T09:58:35;7.10;57.30
2767;DHT22;1391;46.742;11.636;2022-11-20T10:01:11;7.50;63.00
2767;DHT22;1391;46.742;11.636;2022-11-20T10:03:50;7.80;59.20
2767;DHT22;1391;46.742;11.636;2022-11-20T10:06:26;8.10;59.70
2767;DHT22;1391;46.742;11.636;2022-11-20T10:09:04;7.80;56.00
2767;DHT22;1391;46.742;11.636;2022-11-20T10:11:47;7.40;57.50
2767;DHT22;1391;46.742;11.636;2022-11-20T10:14:26;7.40;59.20
2767;DHT22;1391;46.742;11.636;2022-11-20T10:17:03;7.70;55.20
2767;DHT22;1391;46.742;11.636;2022-11-20T10:19:51;7.50;55.90
2767;DHT22;1391;46.742;11.636;2022-11-20T10:22:37;8.00;59.70
2767;DHT22;1391;46.742;11.636;2022-11-20T10:25:14;7.80;54.20
2767;DHT22;1391;46.742;11.636;2022-11-20T10:28:09;7.80;54.40
2767;DHT22;1391;46.742;11.636;2022-11-20T10:30:55;8.10;55.20
2767;DHT22;1391;46.742;11.636;2022-11-20T10:33:25;7.90;51.30
2767;DHT22;1391;46.742;11.636;2022-11-20T10:36:03;8.00;53.20
2767;DHT22;1391;46.742;11.636;2022-11-20T10:38:37;8.40;51.80
2767;DHT22;1391;46.742;11.636;2022-11-20T10:41:06;8.00;51.40
2767;DHT22;1391;46.742;11.636;2022-11-20T10:44:00;8.60;52.00
2767;DHT22;1391;46.742;11.636;2022-11-20T10:46:38;8.50;54.20
2767;DHT22;1391;46.742;11.636;2022-11-20T10:49:12;8.40;51.10
2767;DHT22;1391;46.742;11.636;2022-11-20T10:51:51;9.00;48.80
2767;DHT22;1391;46.742;11.636;2022-11-20T10:54:31;8.30;49.70
2767;DHT22;1391;46.742;11.636;2022-11-20T10:57:07;8.60;50.70
2767;DHT22;1391;46.742;11.636;2022-11-20T11:00:04;9.10;48.10
2767;DHT22;1391;46.742;11.636;2022-11-20T11:02:38;9.00;48.00
2767;DHT22;1391;46.742;11.636;2022-11-20T11:05:22;8.80;49.40
2767;DHT22;1391;46.742;11.636;2022-11-20T11:07:58;9.20;48.70
2767;DHT22;1391;46.742;11.636;2022-11-20T11:10:32;9.10;51.70
2767;DHT22;1391;46.742;11.636;2022-11-20T11:13:03;9.50;48.40
2767;DHT22;1391;46.742;11.636;2022-11-20T11:15:38;9.20;48.20
2767;DHT22;1391;46.742;11.636;2022-11-20T11:18:10;8.60;48.20
2767;DHT22;1391;46.742;11.636;2022-11-20T11:20:38;8.60;47.50
2767;DHT22;1391;46.742;11.636;2022-11-20T11:23:28;8.50;48.60
2767;DHT22;1391;46.742;11.636;2022-11-20T11:25:59;7.80;49.40
2767;DHT22;1391;46.742;11.636;2022-11-20T11:28:28;7.00;50.60
2767;DHT22;1391;46.742;11.636;2022-11-20T11:30:56;7.40;52.00
2767;DHT22;1391;46.742;11.636;2022-11-20T11:33:26;7.50;50.10
2767;DHT22;1391;46.742;11.636;2022-11-20T11:35:56;8.30;49.50
2767;DHT22;1391;46.742;11.636;2022-11-20T11:38:29;8.30;49.10
2767;DHT22;1391;46.742;11.636;2022-11-20T11:41:00;8.70;48.50
2767;DHT22;1391;46.742;11.636;2022-11-20T11:43:31;8.30;47.00
2767;DHT22;1391;46.742;11.636;2022-11-20T11:46:25;8.50;47.50
2767;DHT22;1391;46.742;11.636;2022-11-20T11:49:11;8.70;47.70
2767;DHT22;1391;46.742;11.636;2022-11-20T11:51:55;8.90;46.70
2767;DHT22;1391;46.742;11.636;2022-11-20T11:54:30;8.70;46.90
2767;DHT22;1391;46.742;11.636;2022-11-20T11:57:07;9.10;45.90
2767;DHT22;1391;46.742;11.636;2022-11-20T11:59:48;8.60;46.10
2767;DHT22;1391;46.742;11.636;2022-11-20T12:02:32;8.30;46.30
2767;DHT22;1391;46.742;11.636;2022-11-20T12:05:13;8.50;46.70
2767;DHT22;1391;46.742;11.636;2022-11-20T12:07:47;7.80;47.70
2767;DHT22;1391;46.742;11.636;2022-11-20T12:10:21;7.70;46.80
2767;DHT22;1391;46.742;11.636;2022-11-20T12:12:52;7.70;48.10
2767;DHT22;1391;46.742;11.636;2022-11-20T12:15:28;7.40;48.50
2767;DHT22;1391;46.742;11.636;2022-11-20T12:17:56;7.30;48.80
2767;DHT22;1391;46.742;11.636;2022-11-20T12:20:28;7.30;49.70
2767;DHT22;1391;46.742;11.636;2022-11-20T12:23:04;7.30;50.90
2767;DHT22;1391;46.742;11.636;2022-11-20T12:25:36;7.00;49.20
2767;DHT22;1391;46.742;11.636;2022-11-20T12:28:38;6.90;50.40
2767;DHT22;1391;46.742;11.636;2022-11-20T12:31:34;7.00;49.40
2767;DHT22;1391;46.742;11.636;2022-11-20T12:34:23;6.90;51.20
2767;DHT22;1391;46.742;11.636;2022-11-20T12:37:10;6.40;53.20
2767;DHT22;1391;46.742;11.636;2022-11-20T12:39:49;6.70;54.40
2767;DHT22;1391;46.742;11.636;2022-11-20T12:42:24;6.70;54.10
2767;DHT22;1391;46.742;11.636;2022-11-20T12:45:29;6.60;54.20
2767;DHT22;1391;46.742;11.636;2022-11-20T12:48:28;6.50;54.20
2767;DHT22;1391;46.742;11.636;2022-11-20T12:51:27;6.60;53.70
2767;DHT22;1391;46.742;11.636;2022-11-20T12:54:26;6.30;54.40
2767;DHT22;1391;46.742;11.636;2022-11-20T12:57:15;5.90;55.80
2767;DHT22;1391;46.742;11.636;2022-11-20T13:05:59;5.80;59.00
2767;DHT22;1391;46.742;11.636;2022-11-20T13:08:34;5.40;57.20
2767;DHT22;1391;46.742;11.636;2022-11-20T13:11:09;5.50;59.40
2767;DHT22;1391;46.742;11.636;2022-11-20T13:13:50;5.40;58.30
2767;DHT22;1391;46.742;11.636;2022-11-20T13:16:33;5.40;58.20
2767;DHT22;1391;46.742;11.636;2022-11-20T13:19:04;5.50;57.90
2767;DHT22;1391;46.742;11.636;2022-11-20T13:21:37;5.60;58.90
2767;DHT22;1391;46.742;11.636;2022-11-20T13:24:06;5.10;58.60
2767;DHT22;1391;46.742;11.636;2022-11-20T13:26:48;5.30;59.00
2767;DHT22;1391;46.742;11.636;2022-11-20T13:29:17;5.10;57.30
2767;DHT22;1391;46.742;11.636;2022-11-20T13:31:46;5.00;58.50
2767;DHT22;1391;46.742;11.636;2022-11-20T13:34:26;5.00;63.60
2767;DHT22;1391;46.742;11.636;2022-11-20T13:36:56;4.60;71.40
2767;DHT22;1391;46.742;11.636;2022-11-20T13:39:26;4.40;70.10
2767;DHT22;1391;46.742;11.636;2022-11-20T13:41:57;4.60;69.50
2767;DHT22;1391;46.742;11.636;2022-11-20T13:44:31;4.90;68.10
2767;DHT22;1391;46.742;11.636;2022-11-20T13:47:03;4.70;70.20
2767;DHT22;1391;46.742;11.636;2022-11-20T13:49:33;4.70;69.30
2767;DHT22;1391;46.742;11.636;2022-11-20T13:52:19;4.60;69.90
2767;DHT22;1391;46.742;11.636;2022-11-20T13:55:11;4.60;69.90
2767;DHT22;1391;46.742;11.636;2022-11-20T13:58:05;4.50;70.30
2767;DHT22;1391;46.742;11.636;2022-11-20T14:00:44;4.80;70.80
2767;DHT22;1391;46.742;11.636;2022-11-20T14:03:18;4.30;72.80
2767;DHT22;1391;46.742;11.636;2022-11-20T14:05:51;4.60;71.00
2767;DHT22;1391;46.742;11.636;2022-11-20T14:08:26;4.70;71.40
2767;DHT22;1391;46.742;11.636;2022-11-20T14:11:05;4.40;73.20
2767;DHT22;1391;46.742;11.636;2022-11-20T14:13:57;4.40;69.70
2767;DHT22;1391;46.742;11.636;2022-11-20T14:16:28;4.70;68.90
2767;DHT22;1391;46.742;11.636;2022-11-20T14:18:57;4.20;73.50
2767;DHT22;1391;46.742;11.636;2022-11-20T14:21:51;4.30;71.30
2767;DHT22;1391;46.742;11.636;2022-11-20T14:24:22;3.90;74.80
2767;DHT22;1391;46.742;11.636;2022-11-20T14:26:51;4.00;75.70
2767;DHT22;1391;46.742;11.636;2022-11-20T14:29:23;4.00;76.50
2767;DHT22;1391;46.742;11.636;2022-11-20T14:31:55;3.70;78.50
2767;DHT22;1391;46.742;11.636;2022-11-20T14:34:26;3.70;78.70
2767;DHT22;1391;46.742;11.636;2022-11-20T14:36:58;4.00;75.50
2767;DHT22;1391;46.742;11.636;2022-11-20T14:39:30;4.00;76.00
2767;DHT22;1391;46.742;11.636;2022-11-20T14:41:59;4.00;76.20
2767;DHT22;1391;46.742;11.636;2022-11-20T14:44:31;4.30;73.60
2767;DHT22;1391;46.742;11.636;2022-11-20T14:47:00;3.80;75.00
2767;DHT22;1391;46.742;11.636;2022-11-20T14:49:30;3.40;75.40
2767;DHT22;1391;46.742;11.636;2022-11-20T14:52:00;3.70;77.60
2767;DHT22;1391;46.742;11.636;2022-11-20T14:54:29;3.20;78.00
2767;DHT22;1391;46.742;11.636;2022-11-20T14:56:58;2.90;82.70
2767;DHT22;1391;46.742;11.636;2022-11-20T14:59:30;3.00;81.70
2767;DHT22;1391;46.742;11.636;2022-11-20T15:02:01;2.70;82.50
2767;DHT22;1391;46.742;11.636;2022-11-20T15:04:30;2.80;85.00
2767;DHT22;1391;46.742;11.636;2022-11-20T15:06:59;2.30;88.80
2767;DHT22;1391;46.742;11.636;2022-11-20T15:09:27;2.50;86.10
2767;DHT22;1391;46.742;11.636;2022-11-20T15:11:55;2.80;87.50
2767;DHT22;1391;46.742;11.636;2022-11-20T15:14:25;2.60;87.40
2767;DHT22;1391;46.742;11.636;2022-11-20T15:16:54;2.30;89.20
2767;DHT22;1391;46.742;11.636;2022-11-20T15:19:24;2.20;89.50
2767;DHT22;1391;46.742;11.636;2022-11-20T15:21:52;2.90;88.70
2767;DHT22;1391;46.742;11.636;2022-11-20T15:24:20;2.60;86.00
2767;DHT22;1391;46.742;11.636;2022-11-20T15:26:47;2.40;86.80
2767;DHT22;1391;46.742;11.636;2022-11-20T15:29:17;2.50;86.80
2767;DHT22;1391;46.742;11.636;2022-11-20T15:31:46;2.40;87.00
2767;DHT22;1391;46.742;11.636;2022-11-20T15:34:16;2.20;89.10
2767;DHT22;1391;46.742;11.636;2022-11-20T15:36:43;2.30;87.90
2767;DHT22;1391;46.742;11.636;2022-11-20T15:39:11;2.20;86.90
2767;DHT22;1391;46.742;11.636;2022-11-20T15:41:38;2.20;87.20
2767;DHT22;1391;46.742;11.636;2022-11-20T15:44:06;2.00;88.50
2767;DHT22;1391;46.742;11.636;2022-11-20T15:46:36;2.40;88.30
2767;DHT22;1391;46.742;11.636;2022-11-20T15:49:06;2.30;85.90
2767;DHT22;1391;46.742;11.636;2022-11-20T15:51:41;2.20;86.30
2767;DHT22;1391;46.742;11.636;2022-11-20T15:54:13;2.00;88.30
2767;DHT22;1391;46.742;11.636;2022-11-20T15:56:41;2.10;89.70
2767;DHT22;1391;46.742;11.636;2022-11-20T15:59:09;2.10;87.90
2767;DHT22;1391;46.742;11.636;2022-11-20T16:01:36;2.20;86.30
2767;DHT22;1391;46.742;11.636;2022-11-20T16:04:07;2.20;86.30
2767;DHT22;1391;46.742;11.636;2022-11-20T16:06:38;2.00;87.30
2767;DHT22;1391;46.742;11.636;2022-11-20T16:09:06;2.00;88.50
2767;DHT22;1391;46.742;11.636;2022-11-20T16:11:34;1.90;88.50
2767;DHT22;1391;46.742;11.636;2022-11-20T16:14:02;2.10;89.00
2767;DHT22;1391;46.742;11.636;2022-11-20T16:16:47;1.60;90.40
2767;DHT22;1391;46.742;11.636;2022-11-20T16:19:15;1.40;90.90
2767;DHT22;1391;46.742;11.636;2022-11-20T16:21:45;1.60;90.90
2767;DHT22;1391;46.742;11.636;2022-11-20T16:24:13;1.50;90.40
2767;DHT22;1391;46.742;11.636;2022-11-20T16:26:41;1.60;90.70
2767;DHT22;1391;46.742;11.636;2022-11-20T16:29:08;1.10;92.60
2767;DHT22;1391;46.742;11.636;2022-11-20T16:31:36;1.60;92.40
2767;DHT22;1391;46.742;11.636;2022-11-20T16:34:05;1.60;91.80